Time;durP1;ratioP1;P1;durP2;ratioP2;P2;SDS_P1;SDS_P2;PMS_P1;PMS_P2;Temp;Humidity;BMP_temperature;BMP_pressure;BME280_temperature;BME280_humidity;BME280_pressure;Samples;Min_cycle;Max_cycle;Signal;HPM_P1;HPM_P2
2024/03/16 00:01:29;;;;;;;7.90;2.67;;;12.40;99.90;;;;;;5093393;28;20173;-84
2024/03/16 00:03:54;;;;;;;8.43;2.80;;;12.40;99.90;;;;;;5093884;28;20612;-87
2024/03/16 00:06:22;;;;;;;8.13;2.90;;;12.30;99.90;;;;;;5093277;28;20192;-85
2024/03/16 00:08:51;;;;;;;7.87;3.20;;;12.40;99.90;;;;;;5094343;28;20685;-83
2024/03/16 00:11:16;;;;;;;8.53;3.20;;;12.40;99.90;;;;;;5094040;28;20632;-85
2024/03/16 00:13:42;;;;;;;11.20;3.40;;;12.30;99.90;;;;;;5094559;28;20186;-86
2024/03/16 00:16:13;;;;;;;9.20;2.90;;;12.30;99.90;;;;;;5093779;28;20172;-86
2024/03/16 00:18:39;;;;;;;8.27;3.50;;;12.30;99.90;;;;;;5093101;28;20204;-86
2024/03/16 00:21:08;;;;;;;9.87;3.47;;;12.30;99.90;;;;;;5093859;28;20528;-86
2024/03/16 00:23:34;;;;;;;8.30;3.13;;;12.10;99.90;;;;;;5092857;28;20173;-84
2024/03/16 00:26:00;;;;;;;10.40;3.30;;;12.10;99.90;;;;;;5093809;28;20172;-85
2024/03/16 00:28:26;;;;;;;9.03;3.73;;;12.00;99.90;;;;;;5093498;28;20181;-85
2024/03/16 00:30:52;;;;;;;7.80;3.20;;;12.00;99.90;;;;;;5093369;28;20262;-85
2024/03/16 00:33:18;;;;;;;9.03;3.37;;;12.00;99.90;;;;;;5093140;28;20206;-84
2024/03/16 00:35:44;;;;;;;7.33;3.23;;;11.90;99.90;;;;;;5093151;28;20636;-85
2024/03/16 00:38:10;;;;;;;9.07;3.30;;;12.00;99.90;;;;;;5093775;28;20172;-86
2024/03/16 00:40:36;;;;;;;9.70;3.53;;;12.20;99.90;;;;;;5093661;28;20183;-86
2024/03/16 00:43:01;;;;;;;11.13;2.97;;;12.10;99.90;;;;;;5093075;28;20712;-85
2024/03/16 00:45:27;;;;;;;8.80;3.37;;;12.10;99.90;;;;;;5093569;28;20177;-87
2024/03/16 00:47:55;;;;;;;8.63;3.10;;;12.00;99.90;;;;;;5092694;28;20636;-87
2024/03/16 00:50:21;;;;;;;11.83;3.70;;;12.00;99.90;;;;;;5093179;28;20168;-85
2024/03/16 00:52:54;;;;;;;10.40;3.57;;;12.00;99.90;;;;;;5093708;28;20179;-85
2024/03/16 00:55:20;;;;;;;7.90;2.77;;;12.10;99.90;;;;;;5092592;28;20183;-86
2024/03/16 00:57:48;;;;;;;7.37;3.10;;;12.20;99.90;;;;;;5091595;28;20232;-85
2024/03/16 01:00:17;;;;;;;9.23;2.83;;;12.20;99.90;;;;;;5093846;28;20203;-87
2024/03/16 01:02:43;;;;;;;8.27;3.23;;;12.30;99.90;;;;;;5094177;28;20662;-86
2024/03/16 01:05:09;;;;;;;12.17;3.40;;;12.30;99.90;;;;;;5092280;28;20234;-85
2024/03/16 01:07:36;;;;;;;11.97;3.67;;;12.20;99.90;;;;;;5092722;28;20187;-85
2024/03/16 01:10:02;;;;;;;9.53;3.17;;;12.20;99.90;;;;;;5094813;28;20176;-84
2024/03/16 01:12:27;;;;;;;8.43;3.10;;;12.20;99.90;;;;;;5092471;28;20183;-84
2024/03/16 01:14:53;;;;;;;9.53;3.60;;;12.20;99.90;;;;;;5093318;28;20179;-85
2024/03/16 01:17:20;;;;;;;11.07;3.80;;;12.20;99.90;;;;;;5093072;28;20627;-85
2024/03/16 01:19:49;;;;;;;10.37;4.00;;;12.10;99.90;;;;;;5093217;28;20215;-85
2024/03/16 01:22:15;;;;;;;8.07;3.50;;;12.20;99.90;;;;;;5093399;28;20624;-86
2024/03/16 01:24:40;;;;;;;8.47;3.30;;;12.20;99.90;;;;;;5092232;28;20180;-86
2024/03/16 01:27:06;;;;;;;7.77;3.30;;;12.20;99.90;;;;;;5090783;28;20184;-88
2024/03/16 01:29:35;;;;;;;11.90;3.40;;;12.20;99.90;;;;;;5092112;28;20192;-85
2024/03/16 01:32:04;;;;;;;10.23;3.63;;;12.20;99.90;;;;;;5091140;28;20175;-85
2024/03/16 01:34:29;;;;;;;8.57;2.77;;;12.10;99.90;;;;;;5092636;28;20177;-85
2024/03/16 01:36:56;;;;;;;10.17;3.50;;;12.10;99.90;;;;;;5091232;28;20247;-85
2024/03/16 01:39:25;;;;;;;9.40;3.00;;;12.10;99.90;;;;;;5090964;28;20245;-86
2024/03/16 01:41:50;;;;;;;7.93;3.00;;;12.20;99.90;;;;;;5092218;28;20642;-85
2024/03/16 01:44:16;;;;;;;4.67;2.63;;;12.10;99.90;;;;;;5092630;28;20222;-87
2024/03/16 01:46:42;;;;;;;6.50;2.73;;;12.10;99.90;;;;;;5091914;28;20173;-84
2024/03/16 01:49:10;;;;;;;5.03;2.47;;;12.10;99.90;;;;;;5092358;28;20194;-85
2024/03/16 01:51:38;;;;;;;10.60;3.27;;;12.10;99.90;;;;;;5092106;28;20163;-84
2024/03/16 01:54:05;;;;;;;10.47;2.87;;;12.10;99.90;;;;;;5090916;28;20546;-84
2024/03/16 01:56:31;;;;;;;8.90;3.47;;;12.10;99.90;;;;;;5091379;28;20635;-85
2024/03/16 01:58:57;;;;;;;8.70;3.07;;;12.10;99.90;;;;;;5091718;28;20229;-86
2024/03/16 02:01:23;;;;;;;8.43;3.40;;;12.10;99.90;;;;;;5091776;28;20180;-84
2024/03/16 02:03:50;;;;;;;8.77;3.33;;;12.10;99.90;;;;;;5093031;28;20181;-85
2024/03/16 02:06:16;;;;;;;7.63;3.00;;;12.00;99.90;;;;;;5093111;28;20198;-85
2024/03/16 02:08:41;;;;;;;7.67;3.33;;;12.00;99.90;;;;;;5094130;28;20219;-85
2024/03/16 02:11:07;;;;;;;8.17;3.77;;;12.00;99.90;;;;;;5091739;28;20171;-85
2024/03/16 02:13:33;;;;;;;7.57;3.67;;;12.00;99.90;;;;;;5091723;28;20484;-84
2024/03/16 02:15:58;;;;;;;8.63;4.10;;;12.00;99.90;;;;;;5090198;28;20245;-86
2024/03/16 02:18:34;;;;;;;;;;;;;;;;;;;;;
2024/03/16 02:21:00;;;;;;;6.83;3.87;;;12.00;99.90;;;;;;5092951;28;20176;-84
2024/03/16 02:23:26;;;;;;;8.43;4.10;;;11.90;99.90;;;;;;5091647;28;20691;-85
2024/03/16 02:25:59;;;;;;;8.90;4.10;;;11.90;99.90;;;;;;5090542;28;20200;-84
2024/03/16 02:28:25;;;;;;;10.17;5.07;;;11.90;99.90;;;;;;5092062;28;20274;-84
2024/03/16 02:30:52;;;;;;;10.00;4.53;;;11.90;99.90;;;;;;5091852;28;20208;-84
2024/03/16 02:33:17;;;;;;;10.00;4.77;;;11.90;99.90;;;;;;5092160;28;20658;-84
2024/03/16 02:35:43;;;;;;;9.33;5.10;;;11.90;99.90;;;;;;5091657;28;20178;-83
2024/03/16 02:38:09;;;;;;;9.07;5.80;;;11.90;99.90;;;;;;5091634;28;20478;-84
2024/03/16 02:40:37;;;;;;;12.63;5.60;;;11.90;99.90;;;;;;5091122;28;20208;-84
2024/03/16 02:43:04;;;;;;;9.67;6.30;;;12.00;99.90;;;;;;5090427;28;20164;-84
2024/03/16 02:45:31;;;;;;;12.63;5.83;;;11.90;99.90;;;;;;5091045;28;20171;-85
2024/03/16 02:47:57;;;;;;;10.43;5.47;;;11.80;99.90;;;;;;5091534;28;20262;-84
2024/03/16 02:50:23;;;;;;;13.33;5.73;;;11.90;99.90;;;;;;5091226;28;20177;-84
2024/03/16 02:52:49;;;;;;;9.43;5.47;;;11.90;99.90;;;;;;5089977;28;20542;-85
2024/03/16 02:55:15;;;;;;;9.73;6.03;;;12.00;99.90;;;;;;5090645;28;20597;-85
2024/03/16 02:57:40;;;;;;;13.07;6.63;;;11.90;99.90;;;;;;5092012;28;20167;-85
2024/03/16 03:00:12;;;;;;;13.27;7.63;;;12.00;99.90;;;;;;5094447;28;20682;-85
2024/03/16 03:02:38;;;;;;;13.63;7.17;;;12.00;99.90;;;;;;5095337;28;20279;-86
2024/03/16 03:05:06;;;;;;;15.93;7.93;;;11.90;99.90;;;;;;5095407;28;20221;-84
2024/03/16 03:07:31;;;;;;;12.87;8.23;;;12.00;99.90;;;;;;5094942;28;20217;-84
2024/03/16 03:09:57;;;;;;;13.07;8.23;;;12.00;99.90;;;;;;5095889;28;20179;-84
2024/03/16 03:12:26;;;;;;;12.77;9.83;;;12.10;99.90;;;;;;5094213;28;20204;-85
2024/03/16 03:14:51;;;;;;;16.37;9.43;;;12.00;99.90;;;;;;5093748;28;20224;-84
2024/03/16 03:17:17;;;;;;;15.57;9.63;;;11.80;99.90;;;;;;5095290;28;20177;-85
2024/03/16 03:22:49;;;;;;;13.87;10.10;;;11.80;99.90;;;;;;5091012;28;20271;-85
2024/03/16 03:25:15;;;;;;;11.40;7.40;;;11.60;99.90;;;;;;5093098;28;20525;-84
2024/03/16 03:27:41;;;;;;;13.90;8.40;;;11.00;99.90;;;;;;5094455;28;20175;-85
2024/03/16 03:30:07;;;;;;;13.03;8.57;;;10.70;99.90;;;;;;5094104;28;20640;-83
2024/03/16 03:32:32;;;;;;;11.07;8.70;;;10.40;99.90;;;;;;5093650;28;20210;-83
2024/03/16 03:34:58;;;;;;;11.87;8.80;;;10.30;99.90;;;;;;5093772;28;20616;-84
2024/03/16 03:37:24;;;;;;;12.27;7.80;;;10.20;99.90;;;;;;5094424;28;20240;-83
2024/03/16 03:39:52;;;;;;;12.07;6.93;;;10.00;99.90;;;;;;5094664;28;20251;-85
2024/03/16 03:42:19;;;;;;;8.43;6.50;;;10.00;99.90;;;;;;5092521;28;20252;-85
2024/03/16 03:45:00;;;;;;;7.27;5.30;;;10.00;99.90;;;;;;5094665;28;20248;-85
2024/03/16 03:47:40;;;;;;;10.43;5.67;;;9.80;99.90;;;;;;5094699;28;20258;-85
2024/03/16 03:50:09;;;;;;;9.30;6.30;;;9.70;99.90;;;;;;5092844;28;20262;-84
2024/03/16 03:52:37;;;;;;;8.93;6.07;;;9.80;99.90;;;;;;5093940;28;20174;-84
2024/03/16 03:55:02;;;;;;;9.93;6.97;;;9.80;99.90;;;;;;5094611;28;20217;-84
2024/03/16 03:57:28;;;;;;;9.80;7.13;;;9.80;99.90;;;;;;5093166;28;20171;-84
2024/03/16 03:59:54;;;;;;;12.10;7.53;;;9.80;99.90;;;;;;5093948;28;20208;-85
2024/03/16 04:02:19;;;;;;;10.03;7.03;;;9.80;99.90;;;;;;5093227;28;20588;-84
2024/03/16 04:04:45;;;;;;;10.13;7.60;;;9.80;99.90;;;;;;5093305;28;20199;-84
2024/03/16 04:07:11;;;;;;;11.33;7.90;;;9.90;99.90;;;;;;5094218;28;20172;-84
2024/03/16 04:09:36;;;;;;;13.73;8.17;;;9.80;99.90;;;;;;5094407;28;20682;-84
2024/03/16 04:12:02;;;;;;;10.60;7.77;;;9.80;99.90;;;;;;5092519;28;20623;-84
2024/03/16 04:14:28;;;;;;;9.60;7.23;;;9.90;99.90;;;;;;5092847;28;20168;-84
2024/03/16 04:16:53;;;;;;;11.80;7.10;;;9.70;99.90;;;;;;5092935;28;20172;-85
2024/03/16 04:19:19;;;;;;;12.70;7.63;;;9.70;99.90;;;;;;5091821;28;20674;-83
2024/03/16 04:21:49;;;;;;;12.10;6.67;;;9.60;99.90;;;;;;5093385;28;20274;-84
2024/03/16 04:24:15;;;;;;;11.63;6.27;;;9.70;99.90;;;;;;5094966;28;20163;-85
2024/03/16 04:26:41;;;;;;;11.50;7.37;;;9.80;99.90;;;;;;5092837;28;20178;-83
2024/03/16 04:29:06;;;;;;;10.60;6.80;;;9.70;99.90;;;;;;5092722;28;20175;-85
2024/03/16 04:31:32;;;;;;;11.90;7.77;;;9.70;99.90;;;;;;5093330;28;20313;-84
2024/03/16 04:33:58;;;;;;;14.27;8.23;;;9.60;99.90;;;;;;5092513;28;20271;-84
2024/03/16 04:36:23;;;;;;;15.93;9.30;;;9.70;99.90;;;;;;5095545;28;20185;-84
2024/03/16 04:38:49;;;;;;;12.27;9.80;;;9.80;99.90;;;;;;5092745;28;20210;-83
2024/03/16 04:41:15;;;;;;;16.80;12.70;;;9.80;99.90;;;;;;5092522;28;20990;-85
2024/03/16 04:43:41;;;;;;;19.47;13.20;;;9.80;99.90;;;;;;5092537;28;20252;-83
2024/03/16 04:46:06;;;;;;;19.77;14.83;;;9.80;99.90;;;;;;5091207;28;20217;-83
2024/03/16 04:48:32;;;;;;;17.70;14.70;;;9.80;99.90;;;;;;5093260;28;20164;-85
2024/03/16 04:50:58;;;;;;;21.60;16.00;;;9.90;99.90;;;;;;5095257;28;20175;-84
2024/03/16 04:53:23;;;;;;;20.53;15.07;;;10.00;99.90;;;;;;5096362;28;20167;-85
2024/03/16 04:55:52;;;;;;;22.50;14.87;;;9.90;99.90;;;;;;5092553;28;20254;-84
2024/03/16 04:58:17;;;;;;;18.77;15.27;;;9.90;99.90;;;;;;5092855;28;20221;-85
2024/03/16 05:00:43;;;;;;;24.27;15.60;;;9.80;99.90;;;;;;5092561;28;20594;-83
2024/03/16 05:03:09;;;;;;;18.77;14.23;;;9.80;99.90;;;;;;5091254;28;20709;-84
2024/03/16 05:05:35;;;;;;;17.33;13.10;;;9.80;99.90;;;;;;5092783;28;20694;-83
2024/03/16 05:08:01;;;;;;;17.07;13.00;;;9.80;99.90;;;;;;5092921;28;20175;-84
2024/03/16 05:10:26;;;;;;;15.53;11.63;;;9.90;99.90;;;;;;5092287;28;20223;-83
2024/03/16 05:12:52;;;;;;;14.43;9.90;;;9.80;99.90;;;;;;5092590;28;20266;-84
2024/03/16 05:15:18;;;;;;;13.30;9.60;;;9.70;99.90;;;;;;5092963;28;20539;-85
2024/03/16 05:17:44;;;;;;;11.23;7.90;;;9.70;99.90;;;;;;5092215;28;20187;-84
2024/03/16 05:20:10;;;;;;;12.10;7.87;;;9.50;99.90;;;;;;5092073;28;20243;-85
2024/03/16 05:22:36;;;;;;;12.30;7.73;;;9.50;99.90;;;;;;5092481;28;20171;-84
2024/03/16 05:25:02;;;;;;;12.23;7.90;;;9.50;99.90;;;;;;5091994;28;20557;-84
2024/03/16 05:27:27;;;;;;;10.97;7.27;;;9.60;99.90;;;;;;5092292;28;20199;-86
2024/03/16 05:29:53;;;;;;;13.57;7.90;;;9.60;99.90;;;;;;5091746;28;20199;-85
2024/03/16 05:32:19;;;;;;;9.87;7.53;;;9.60;99.90;;;;;;5091120;28;20622;-85
2024/03/16 05:34:45;;;;;;;10.83;7.20;;;9.60;99.90;;;;;;5091153;28;20181;-84
2024/03/16 05:37:10;;;;;;;10.77;7.50;;;9.70;99.90;;;;;;5091789;28;20174;-83
2024/03/16 05:39:36;;;;;;;10.10;7.27;;;9.60;99.90;;;;;;5092858;28;20199;-84
2024/03/16 05:42:01;;;;;;;13.67;7.67;;;9.70;99.90;;;;;;5092343;28;20171;-84
2024/03/16 05:44:27;;;;;;;14.07;8.43;;;9.70;99.90;;;;;;5090807;28;20650;-83
2024/03/16 05:46:53;;;;;;;10.53;6.63;;;9.80;99.90;;;;;;5092464;28;20184;-84
2024/03/16 05:49:18;;;;;;;13.47;6.73;;;9.70;99.90;;;;;;5090571;28;20171;-83
2024/03/16 05:51:44;;;;;;;8.47;5.00;;;9.70;99.90;;;;;;5091734;28;20263;-84
2024/03/16 05:54:10;;;;;;;8.80;4.83;;;9.70;99.90;;;;;;5091274;28;20204;-85
2024/03/16 05:57:04;;;;;;;9.43;4.93;;;9.80;99.90;;;;;;5091916;28;20604;-84
2024/03/16 05:59:31;;;;;;;8.03;3.90;;;9.70;99.90;;;;;;5091615;28;20293;-84
2024/03/16 06:01:57;;;;;;;9.30;3.90;;;9.60;99.90;;;;;;5091911;28;20177;-84
2024/03/16 06:04:22;;;;;;;10.07;3.97;;;9.50;99.90;;;;;;5091435;28;20195;-85
2024/03/16 06:06:48;;;;;;;6.73;2.83;;;9.60;99.90;;;;;;5090789;28;20163;-85
2024/03/16 06:09:14;;;;;;;8.67;3.60;;;9.70;99.90;;;;;;5091726;28;20264;-84
2024/03/16 06:11:40;;;;;;;9.83;3.20;;;9.60;99.90;;;;;;5091650;28;20275;-84
2024/03/16 06:14:09;;;;;;;5.97;3.50;;;9.60;99.90;;;;;;5090996;28;20175;-83
2024/03/16 06:16:37;;;;;;;5.00;2.77;;;9.60;99.90;;;;;;5091652;28;20640;-84
2024/03/16 06:19:04;;;;;;;7.77;3.10;;;9.60;99.90;;;;;;5091160;28;20675;-84
2024/03/16 06:21:29;;;;;;;7.73;3.67;;;9.70;99.90;;;;;;5091235;28;20643;-85
2024/03/16 06:23:55;;;;;;;9.73;4.40;;;9.70;99.90;;;;;;5091240;28;20202;-83
2024/03/16 06:26:22;;;;;;;8.40;3.83;;;9.70;99.90;;;;;;5090855;28;20537;-84
2024/03/16 06:28:54;;;;;;;8.87;4.30;;;9.80;99.50;;;;;;5091194;28;20171;-86
2024/03/16 06:31:31;;;;;;;8.67;5.00;;;9.80;99.40;;;;;;5090755;28;20172;-84
2024/03/16 06:33:59;;;;;;;9.93;5.17;;;9.70;98.50;;;;;;5089621;28;20195;-84
2024/03/16 06:36:25;;;;;;;9.77;5.00;;;9.90;98.40;;;;;;5090033;28;20172;-84
2024/03/16 06:38:50;;;;;;;8.90;5.67;;;9.80;97.70;;;;;;5091088;28;20737;-85
2024/03/16 06:41:16;;;;;;;9.07;6.10;;;9.70;99.90;;;;;;5090937;28;20607;-84
2024/03/16 06:43:42;;;;;;;11.20;5.73;;;9.80;99.90;;;;;;5091075;28;20207;-85
2024/03/16 06:46:10;;;;;;;10.07;5.07;;;9.90;99.90;;;;;;5090649;28;20597;-86
2024/03/16 06:48:36;;;;;;;13.77;5.50;;;9.80;99.90;;;;;;5091262;28;20579;-85
2024/03/16 06:51:02;;;;;;;9.03;4.90;;;9.80;99.90;;;;;;5091035;28;20201;-85
2024/03/16 06:53:28;;;;;;;9.23;5.03;;;9.90;99.70;;;;;;5091039;28;20194;-85
2024/03/16 06:55:55;;;;;;;7.83;4.47;;;9.80;99.90;;;;;;5090682;28;20274;-84
2024/03/16 06:58:21;;;;;;;7.40;4.20;;;9.80;99.90;;;;;;5089979;28;20182;-84
2024/03/16 07:00:48;;;;;;;9.53;4.00;;;9.80;99.80;;;;;;5100698;28;20180;-84
2024/03/16 07:03:15;;;;;;;8.17;4.10;;;9.70;99.90;;;;;;5079100;28;20207;-85
2024/03/16 07:05:41;;;;;;;7.40;3.60;;;9.80;99.90;;;;;;5078674;28;20197;-85
2024/03/16 07:08:12;;;;;;;6.27;3.10;;;9.80;99.90;;;;;;5091090;28;20179;-85
2024/03/16 07:10:39;;;;;;;10.17;3.53;;;9.90;99.90;;;;;;5072725;28;20195;-84
2024/03/16 07:13:05;;;;;;;11.17;3.80;;;9.80;99.60;;;;;;5104158;28;20175;-84
2024/03/16 07:15:34;;;;;;;9.00;3.30;;;9.80;98.60;;;;;;5111286;28;20262;-84
2024/03/16 07:18:03;;;;;;;7.33;2.87;;;9.90;98.60;;;;;;5110312;28;20167;-85
2024/03/16 07:20:30;;;;;;;7.60;3.37;;;10.00;93.70;;;;;;5109239;28;20263;-84
2024/03/16 07:22:56;;;;;;;7.27;2.50;;;10.00;90.50;;;;;;5110558;28;20285;-86
2024/03/16 07:25:22;;;;;;;7.47;2.23;;;9.80;81.00;;;;;;5110116;28;20258;-83
2024/03/16 07:27:48;;;;;;;6.27;1.83;;;9.70;80.10;;;;;;5110393;28;20176;-84
2024/03/16 07:30:14;;;;;;;3.87;1.40;;;9.70;75.40;;;;;;5110579;28;20171;-84
2024/03/16 07:32:39;;;;;;;8.73;1.40;;;9.50;59.40;;;;;;5109053;28;20171;-84
2024/03/16 07:35:08;;;;;;;6.63;1.60;;;9.50;62.90;;;;;;5112654;28;20264;-84
2024/03/16 07:37:34;;;;;;;5.53;2.00;;;9.50;68.30;;;;;;5110717;28;20179;-85
2024/03/16 07:40:00;;;;;;;6.07;1.87;;;9.50;66.00;;;;;;5111083;28;20206;-84
2024/03/16 07:42:25;;;;;;;5.10;1.50;;;9.50;57.70;;;;;;5110371;28;20171;-83
2024/03/16 07:44:51;;;;;;;6.77;1.53;;;9.60;55.30;;;;;;5113241;28;20542;-84
2024/03/16 07:47:17;;;;;;;5.57;1.30;;;9.70;54.90;;;;;;5113849;28;20244;-84
2024/03/16 07:49:43;;;;;;;7.43;1.43;;;9.60;50.60;;;;;;5114252;28;20185;-85
2024/03/16 07:52:10;;;;;;;5.50;1.47;;;9.60;47.90;;;;;;5114363;28;20173;-84
2024/03/16 07:54:36;;;;;;;4.23;1.17;;;9.40;48.60;;;;;;5114498;28;20292;-84
2024/03/16 07:57:01;;;;;;;6.77;1.27;;;9.40;46.60;;;;;;5112617;28;20196;-84
2024/03/16 07:59:27;;;;;;;4.80;1.30;;;9.40;49.00;;;;;;5114016;28;20576;-83
2024/03/16 08:01:53;;;;;;;6.53;1.53;;;9.40;50.70;;;;;;5113225;28;20170;-85
2024/03/16 08:04:19;;;;;;;5.50;1.80;;;9.40;50.90;;;;;;5113125;28;20187;-86
2024/03/16 08:06:45;;;;;;;4.13;1.37;;;9.40;52.40;;;;;;5112690;28;20223;-85
2024/03/16 08:09:11;;;;;;;4.13;1.50;;;9.40;49.40;;;;;;5113245;28;20507;-82
2024/03/16 08:11:38;;;;;;;7.27;1.93;;;9.40;50.50;;;;;;5113270;28;20190;-84
2024/03/16 08:14:08;;;;;;;4.27;1.40;;;9.50;48.40;;;;;;5113517;28;20202;-84
2024/03/16 08:16:34;;;;;;;3.17;1.30;;;9.50;47.60;;;;;;5114921;28;20548;-84
2024/03/16 08:19:00;;;;;;;6.47;1.80;;;9.40;47.10;;;;;;5092575;28;20212;-82
2024/03/16 08:21:25;;;;;;;4.10;1.47;;;9.50;52.90;;;;;;5093748;28;20171;-87
2024/03/16 08:23:51;;;;;;;5.00;1.90;;;9.50;54.10;;;;;;5092228;28;20600;-85
2024/03/16 08:26:17;;;;;;;5.00;2.20;;;9.40;51.50;;;;;;5093417;28;20160;-84
2024/03/16 08:28:43;;;;;;;4.73;2.00;;;9.50;46.70;;;;;;5095195;28;20172;-83
2024/03/16 08:31:08;;;;;;;6.03;2.20;;;9.50;43.70;;;;;;5091988;28;20232;-84
2024/03/16 08:33:34;;;;;;;6.83;2.03;;;9.60;39.20;;;;;;5090982;28;20172;-85
2024/03/16 08:36:00;;;;;;;5.63;1.93;;;9.60;30.00;;;;;;5090972;28;20217;-82
2024/03/16 08:38:25;;;;;;;5.57;1.70;;;9.60;26.80;;;;;;5092478;28;20671;-82
2024/03/16 08:40:51;;;;;;;4.53;1.80;;;9.80;26.40;;;;;;5092826;28;20632;-85
2024/03/16 08:43:17;;;;;;;5.67;1.50;;;9.80;21.40;;;;;;5093019;28;20240;-82
2024/03/16 08:45:43;;;;;;;4.47;1.53;;;9.60;8.40;;;;;;5092697;28;20612;-82
2024/03/16 08:48:09;;;;;;;14.47;2.17;;;9.60;17.20;;;;;;5091118;28;20172;-83
2024/03/16 08:50:35;;;;;;;5.57;1.97;;;9.80;21.30;;;;;;5089938;28;20168;-82
2024/03/16 08:53:01;;;;;;;3.63;1.23;;;9.90;10.10;;;;;;5091714;28;20175;-81
2024/03/16 08:55:27;;;;;;;3.93;1.50;;;9.80;4.00;;;;;;5091342;28;20175;-83
2024/03/16 08:57:53;;;;;;;2.87;1.07;;;10.10;1.00;;;;;;5091340;28;20175;-82
2024/03/16 09:00:18;;;;;;;6.13;1.23;;;10.20;1.00;;;;;;5091705;28;20207;-83
2024/03/16 09:02:44;;;;;;;4.00;1.17;;;10.30;1.00;;;;;;5091605;28;20187;-84
2024/03/16 09:05:13;;;;;;;6.10;1.47;;;10.20;1.00;;;;;;5091935;28;20222;-84
2024/03/16 09:07:39;;;;;;;3.77;1.00;;;10.30;1.00;;;;;;5091697;28;20253;-83
2024/03/16 09:10:10;;;;;;;4.10;1.20;;;10.20;1.00;;;;;;5090969;28;20195;-82
2024/03/16 09:12:39;;;;;;;5.10;1.10;;;10.40;1.00;;;;;;5090921;28;20254;-82
2024/03/16 09:15:08;;;;;;;3.07;0.93;;;10.20;1.00;;;;;;5093072;28;20175;-82
2024/03/16 09:17:34;;;;;;;6.07;1.20;;;10.20;1.00;;;;;;5092059;28;20183;-83
2024/03/16 09:20:10;;;;;;;5.23;1.83;;;10.20;1.00;;;;;;5091185;28;20207;-82
2024/03/16 09:22:38;;;;;;;5.33;1.43;;;10.20;1.00;;;;;;5091065;28;20239;-81
2024/03/16 09:25:05;;;;;;;5.37;1.57;;;10.30;1.00;;;;;;5092667;28;20531;-82
2024/03/16 09:27:36;;;;;;;4.40;1.30;;;10.50;1.00;;;;;;5089733;28;20917;-83
2024/03/16 09:30:07;;;;;;;6.00;1.40;;;10.60;1.00;;;;;;5089526;28;20179;-81
2024/03/16 09:32:34;;;;;;;2.77;1.13;;;10.60;1.00;;;;;;5090280;28;20237;-82
2024/03/16 09:35:00;;;;;;;5.40;1.50;;;10.60;1.00;;;;;;5091520;28;20183;-83
2024/03/16 09:37:25;;;;;;;5.57;1.43;;;10.50;1.00;;;;;;5090965;28;20686;-82
2024/03/16 09:39:51;;;;;;;4.80;1.40;;;10.60;1.00;;;;;;5090166;28;20218;-84
2024/03/16 09:42:21;;;;;;;5.33;1.70;;;10.50;1.00;;;;;;5090071;28;20693;-82
2024/03/16 09:44:48;;;;;;;3.70;1.77;;;10.40;1.00;;;;;;5091759;28;20168;-83
2024/03/16 09:47:22;;;;;;;4.87;2.10;;;10.50;1.00;;;;;;5090685;28;20179;-83
2024/03/16 09:49:49;;;;;;;4.00;2.17;;;10.50;1.00;;;;;;5094933;28;20174;-83
2024/03/16 09:52:16;;;;;;;7.50;2.30;;;10.50;1.00;;;;;;5090637;28;20219;-82
2024/03/16 09:54:42;;;;;;;4.43;2.00;;;10.40;1.00;;;;;;5090172;28;20263;-85
2024/03/16 09:57:14;;;;;;;6.30;2.07;;;10.20;1.00;;;;;;5090074;28;20167;-83
2024/03/16 09:59:50;;;;;;;5.67;1.93;;;10.20;1.00;;;;;;5089483;28;20211;-85
2024/03/16 10:02:20;;;;;;;3.23;1.60;;;10.10;1.00;;;;;;5092222;28;20183;-85
2024/03/16 10:04:48;;;;;;;5.03;1.77;;;10.10;1.00;;;;;;5090653;28;20682;-86
2024/03/16 10:07:13;;;;;;;6.20;1.90;;;10.10;1.00;;;;;;5091327;28;20164;-84
2024/03/16 10:09:58;;;;;;;6.03;2.00;;;10.30;1.00;;;;;;5090840;28;20543;-86
2024/03/16 10:12:24;;;;;;;3.87;1.80;;;10.40;1.00;;;;;;5088996;28;20178;-87
2024/03/16 10:15:15;;;;;;;3.57;1.73;;;10.50;1.00;;;;;;5090311;28;20176;-84
2024/03/16 10:17:41;;;;;;;4.33;1.90;;;10.40;1.00;;;;;;5090987;28;20263;-83
2024/03/16 10:20:15;;;;;;;6.13;2.17;;;10.40;1.00;;;;;;5090224;28;20312;-84
2024/03/16 10:22:48;;;;;;;4.40;2.30;;;10.40;1.00;;;;;;5091521;28;20175;-89
2024/03/16 10:25:15;;;;;;;3.43;2.67;;;10.40;1.00;;;;;;5090944;28;20202;-85
2024/03/16 10:27:44;;;;;;;9.27;2.80;;;10.40;1.00;;;;;;5090379;28;20195;-87
2024/03/16 10:30:16;;;;;;;5.27;2.70;;;10.40;1.00;;;;;;5091794;28;20270;-86
2024/03/16 10:32:49;;;;;;;7.60;2.83;;;10.30;1.00;;;;;;5090528;28;20189;-87
2024/03/16 10:35:25;;;;;;;6.27;2.60;;;10.30;1.00;;;;;;5092342;28;20245;-86
2024/03/16 10:37:51;;;;;;;6.20;2.83;;;10.20;1.00;;;;;;5091953;28;20179;-86
2024/03/16 10:40:19;;;;;;;6.07;2.30;;;10.10;13.20;;;;;;5091191;28;20211;-84
2024/03/16 10:42:47;;;;;;;2.50;1.70;;;9.90;27.20;;;;;;5090127;28;20580;-82
2024/03/16 10:45:30;;;;;;;;;;;;;;;;;;;;;
2024/03/16 10:47:56;;;;;;;5.30;2.40;;;9.90;25.90;;;;;;5092238;28;20540;-87
2024/03/16 10:50:27;;;;;;;4.90;1.83;;;9.90;23.80;;;;;;5090572;28;20241;-83
2024/03/16 10:52:57;;;;;;;11.67;3.60;;;9.90;25.50;;;;;;5089639;28;20269;-86
2024/03/16 10:55:25;;;;;;;4.63;2.60;;;9.90;29.30;;;;;;5090648;28;20221;-86
2024/03/16 10:57:52;;;;;;;4.20;1.97;;;10.10;19.30;;;;;;5090692;28;20178;-87
2024/03/16 11:00:21;;;;;;;4.07;2.07;;;10.00;3.80;;;;;;5091564;28;20256;-86
2024/03/16 11:02:50;;;;;;;5.60;2.37;;;10.00;6.70;;;;;;5097884;28;20184;-87
2024/03/16 11:05:35;;;;;;;3.53;1.93;;;10.20;1.00;;;;;;5093035;28;20250;-86
2024/03/16 11:08:21;;;;;;;6.80;2.27;;;10.20;1.00;;;;;;5075248;28;20179;-87
2024/03/16 11:10:53;;;;;;;5.00;2.27;;;10.30;1.00;;;;;;5090641;28;20178;-86
2024/03/16 11:13:25;;;;;;;5.80;2.30;;;10.40;1.00;;;;;;5091251;28;20608;-86
2024/03/16 11:15:54;;;;;;;4.17;2.00;;;10.40;1.00;;;;;;5090729;28;20176;-86
2024/03/16 11:18:20;;;;;;;2.80;2.00;;;10.30;1.00;;;;;;5074752;28;20199;-87
2024/03/16 11:20:53;;;;;;;5.93;2.40;;;10.20;1.00;;;;;;5094701;28;20227;-87
2024/03/16 11:23:32;;;;;;;4.43;2.10;;;10.30;1.00;;;;;;5094912;28;20708;-84
2024/03/16 11:26:19;;;;;;;6.03;2.30;;;10.40;1.00;;;;;;5095151;28;20269;-85
2024/03/16 11:28:46;;;;;;;6.87;2.37;;;10.50;1.00;;;;;;5094465;28;20178;-85
2024/03/16 11:31:29;;;;;;;6.27;1.80;;;10.50;1.00;;;;;;5095286;28;20206;-85
2024/03/16 11:33:58;;;;;;;3.00;1.40;;;10.50;1.00;;;;;;5094109;28;20294;-87
2024/03/16 11:36:29;;;;;;;3.87;1.57;;;10.60;1.00;;;;;;5094202;28;20636;-86
2024/03/16 11:38:55;;;;;;;4.00;1.70;;;10.50;1.00;;;;;;5093968;28;20235;-88
2024/03/16 11:41:21;;;;;;;5.20;1.73;;;10.50;1.00;;;;;;5093638;28;20191;-84
2024/03/16 11:43:48;;;;;;;5.80;1.50;;;10.60;1.00;;;;;;5093184;28;20249;-85
2024/03/16 11:46:17;;;;;;;2.27;1.30;;;10.80;1.00;;;;;;5094250;28;20168;-84
2024/03/16 11:48:43;;;;;;;4.07;1.37;;;11.10;1.00;;;;;;5094485;28;20207;-85
2024/03/16 11:51:13;;;;;;;2.63;1.43;;;11.00;1.00;;;;;;5093573;28;20182;-85
2024/03/16 11:53:39;;;;;;;2.53;1.17;;;11.00;1.00;;;;;;5091919;28;20206;-85
2024/03/16 11:56:14;;;;;;;2.20;1.20;;;10.90;1.00;;;;;;5093148;28;20182;-83
2024/03/16 11:58:40;;;;;;;4.40;1.57;;;11.00;1.00;;;;;;5093690;28;20183;-86
2024/03/16 12:01:15;;;;;;;3.40;1.20;;;11.10;1.00;;;;;;5095439;28;20262;-83
2024/03/16 12:03:42;;;;;;;3.13;1.30;;;11.20;1.00;;;;;;5092581;28;20240;-84
2024/03/16 12:06:09;;;;;;;3.17;1.07;;;11.30;1.00;;;;;;5093909;28;20622;-85
2024/03/16 12:08:39;;;;;;;4.00;1.30;;;11.30;1.00;;;;;;5093988;28;20256;-87
2024/03/16 12:11:08;;;;;;;4.10;1.50;;;11.30;1.00;;;;;;5091832;28;20172;-86
2024/03/16 12:13:34;;;;;;;5.40;1.60;;;11.20;1.00;;;;;;5094094;28;20182;-85
2024/03/16 12:16:00;;;;;;;7.37;2.27;;;11.30;1.00;;;;;;5093328;28;20179;-83
2024/03/16 12:18:26;;;;;;;4.63;2.10;;;11.30;1.00;;;;;;5093584;28;20180;-83
2024/03/16 12:20:54;;;;;;;5.90;1.70;;;11.30;1.00;;;;;;5092305;28;20265;-84
2024/03/16 12:23:20;;;;;;;4.53;1.17;;;11.30;1.00;;;;;;5093768;28;20636;-83
2024/03/16 12:25:48;;;;;;;3.80;1.33;;;11.40;1.00;;;;;;5094367;28;20660;-87
2024/03/16 12:28:13;;;;;;;6.10;1.33;;;11.40;1.00;;;;;;5094147;28;20221;-80
2024/03/16 12:30:39;;;;;;;3.63;1.70;;;11.50;1.00;;;;;;5089544;28;20516;-82
2024/03/16 12:33:10;;;;;;;2.67;1.30;;;11.30;1.00;;;;;;5091643;28;20175;-85
2024/03/16 12:35:36;;;;;;;2.00;1.30;;;11.10;1.00;;;;;;5092387;28;20163;-85
2024/03/16 12:38:07;;;;;;;3.73;1.50;;;11.00;1.00;;;;;;5092158;28;20557;-87
2024/03/16 12:40:34;;;;;;;2.77;1.23;;;11.10;1.00;;;;;;5092877;28;20638;-85
2024/03/16 12:43:00;;;;;;;7.13;2.00;;;10.90;1.00;;;;;;5093145;28;20266;-83
2024/03/16 12:45:27;;;;;;;3.90;1.67;;;11.10;1.00;;;;;;5094005;28;20177;-87
2024/03/16 12:47:52;;;;;;;4.30;1.40;;;11.10;1.00;;;;;;5092364;28;20207;-85
2024/03/16 12:50:18;;;;;;;4.17;1.50;;;11.10;1.00;;;;;;5091787;28;20256;-87
2024/03/16 12:52:48;;;;;;;4.70;1.67;;;11.10;1.00;;;;;;5091748;28;20174;-83
2024/03/16 12:55:14;;;;;;;3.93;1.30;;;11.00;1.00;;;;;;5092233;28;20175;-84
2024/03/16 12:57:39;;;;;;;3.33;1.20;;;11.10;1.00;;;;;;5093519;28;20536;-86